createdAt,value
2017-11-21T00:00:49.888Z,19.80
2017-11-21T00:01:55.781Z,19.80
2017-11-21T00:03:01.433Z,19.80
2017-11-21T00:04:06.807Z,19.80
2017-11-21T00:05:12.038Z,19.90
2017-11-21T00:06:17.100Z,19.80
2017-11-21T00:07:22.359Z,19.80
2017-11-21T00:08:28.429Z,19.80
2017-11-21T00:09:33.693Z,19.80
2017-11-21T00:10:38.887Z,19.80
2017-11-21T00:11:44.210Z,19.80
2017-11-21T00:12:49.372Z,19.80
2017-11-21T00:13:55.769Z,19.80
2017-11-21T00:15:01.245Z,19.80
2017-11-21T00:16:06.476Z,19.80
2017-11-21T00:17:11.697Z,19.80
2017-11-21T00:18:16.990Z,19.80
2017-11-21T00:19:22.042Z,19.80
2017-11-21T00:20:27.628Z,19.80
2017-11-21T00:21:33.340Z,19.80
2017-11-21T00:22:38.527Z,19.80
2017-11-21T00:23:43.625Z,19.80
2017-11-21T00:24:48.649Z,19.80
2017-11-21T00:25:53.613Z,19.80
2017-11-21T00:26:58.843Z,19.80
2017-11-21T00:28:03.989Z,19.80
2017-11-21T00:29:09.159Z,19.80
2017-11-21T00:30:14.639Z,19.80
2017-11-21T00:31:20.084Z,19.70
2017-11-21T00:32:25.147Z,19.80
2017-11-21T00:33:30.206Z,19.80
2017-11-21T00:34:36.504Z,19.80
2017-11-21T00:35:42.580Z,19.80
2017-11-21T00:36:47.980Z,19.80
2017-11-21T00:37:53.102Z,19.80
2017-11-21T00:38:58.002Z,19.80
2017-11-21T00:40:02.771Z,19.80
2017-11-21T00:41:07.573Z,19.80
2017-11-21T00:42:12.497Z,19.80
2017-11-21T00:43:17.231Z,19.80
2017-11-21T00:44:22.097Z,19.80
2017-11-21T00:45:26.799Z,19.80
2017-11-21T00:46:31.597Z,19.80
2017-11-21T00:47:36.364Z,19.80
2017-11-21T00:48:41.098Z,19.80
2017-11-21T00:49:45.812Z,19.70
2017-11-21T00:50:50.714Z,19.70
2017-11-21T00:51:55.438Z,19.70
2017-11-21T00:53:00.336Z,19.70
2017-11-21T00:54:04.951Z,19.70
2017-11-21T00:55:09.608Z,19.70
2017-11-21T00:56:14.177Z,19.70
2017-11-21T00:57:18.809Z,19.70
2017-11-21T00:58:23.500Z,19.70
2017-11-21T00:59:28.245Z,19.70
2017-11-21T01:00:32.998Z,19.70
2017-11-21T01:01:37.725Z,19.70
2017-11-21T01:02:42.427Z,19.70
2017-11-21T01:03:47.191Z,19.70
2017-11-21T01:04:52.427Z,19.70
2017-11-21T01:05:57.287Z,19.70
2017-11-21T01:07:01.831Z,19.70
2017-11-21T01:08:06.701Z,19.70
2017-11-21T01:09:11.527Z,19.70
2017-11-21T01:10:16.300Z,19.70
2017-11-21T01:11:21.075Z,19.70
2017-11-21T01:12:25.775Z,19.70
2017-11-21T01:13:30.635Z,19.70
2017-11-21T01:14:35.339Z,19.70
2017-11-21T01:15:39.989Z,19.70
2017-11-21T01:16:44.624Z,19.70
2017-11-21T01:17:49.395Z,19.70
2017-11-21T01:18:54.257Z,19.70
2017-11-21T01:19:58.990Z,19.70
2017-11-21T01:21:03.679Z,19.70
2017-11-21T01:22:08.263Z,19.70
2017-11-21T01:23:13.096Z,19.70
2017-11-21T01:24:18.022Z,19.70
2017-11-21T01:25:22.602Z,19.70
2017-11-21T01:26:27.275Z,19.70
2017-11-21T01:27:32.226Z,19.70
2017-11-21T01:28:36.805Z,19.70
2017-11-21T01:29:41.572Z,19.70
2017-11-21T01:30:46.308Z,19.70
2017-11-21T01:31:51.183Z,19.70
2017-11-21T01:32:55.899Z,19.70
2017-11-21T01:34:00.674Z,19.70
2017-11-21T01:35:05.315Z,19.70
2017-11-21T01:36:10.184Z,19.70
2017-11-21T01:37:14.774Z,19.70
2017-11-21T01:38:19.485Z,19.70
2017-11-21T01:39:24.233Z,19.70
2017-11-21T01:40:29.089Z,19.70
2017-11-21T01:41:33.781Z,19.70
2017-11-21T01:42:38.414Z,19.70
2017-11-21T01:43:43.248Z,19.70
2017-11-21T01:44:47.945Z,19.70
2017-11-21T01:45:52.883Z,19.70
2017-11-21T01:46:57.594Z,19.70
2017-11-21T01:48:02.163Z,19.70
2017-11-21T01:49:06.759Z,19.70
2017-11-21T01:50:11.539Z,19.70
2017-11-21T01:51:16.337Z,19.70
2017-11-21T01:52:21.048Z,19.70
2017-11-21T01:53:25.711Z,19.70
2017-11-21T01:54:30.368Z,19.70
2017-11-21T01:55:35.021Z,19.70
2017-11-21T01:56:39.659Z,19.70
2017-11-21T01:57:45.122Z,19.70
2017-11-21T01:58:49.739Z,19.70
2017-11-21T01:59:54.324Z,19.70
2017-11-21T02:00:58.999Z,19.70
2017-11-21T02:02:03.804Z,19.70
2017-11-21T02:03:08.492Z,19.70
2017-11-21T02:04:13.210Z,19.70
2017-11-21T02:05:17.853Z,19.70
2017-11-21T02:06:22.389Z,19.70
2017-11-21T02:07:27.078Z,19.70
2017-11-21T02:08:31.756Z,19.70
2017-11-21T02:09:36.492Z,19.70
2017-11-21T02:10:41.176Z,19.70
2017-11-21T02:11:46.038Z,19.70
2017-11-21T02:12:50.695Z,19.70
2017-11-21T02:13:55.182Z,19.70
2017-11-21T02:14:59.697Z,19.70
2017-11-21T02:16:04.346Z,19.70
2017-11-21T02:17:09.294Z,19.70
2017-11-21T02:18:13.908Z,19.70
2017-11-21T02:19:18.577Z,19.70
2017-11-21T02:20:23.291Z,19.70
2017-11-21T02:21:27.821Z,19.70
2017-11-21T02:22:32.416Z,19.70
2017-11-21T02:23:37.105Z,19.70
2017-11-21T02:24:41.792Z,19.70
2017-11-21T02:25:46.479Z,19.70
2017-11-21T02:26:51.222Z,19.70
2017-11-21T02:27:56.027Z,19.70
2017-11-21T02:29:00.824Z,19.70
2017-11-21T02:30:05.364Z,19.70
2017-11-21T02:31:10.004Z,19.70
2017-11-21T02:32:14.794Z,19.70
2017-11-21T02:33:19.430Z,19.70
2017-11-21T02:34:24.104Z,19.70
2017-11-21T02:35:28.649Z,19.70
2017-11-21T02:36:33.270Z,19.70
2017-11-21T02:37:37.913Z,19.70
2017-11-21T02:38:42.529Z,19.70
2017-11-21T02:39:47.335Z,19.70
2017-11-21T02:40:52.105Z,19.70
2017-11-21T02:41:56.797Z,19.70
2017-11-21T02:43:01.597Z,19.70
2017-11-21T02:44:06.346Z,19.70
2017-11-21T02:45:11.317Z,19.70
2017-11-21T02:46:15.987Z,19.70
2017-11-21T02:47:20.644Z,19.70
2017-11-21T02:48:25.395Z,19.70
2017-11-21T02:49:30.150Z,19.70
2017-11-21T02:50:34.910Z,19.70
2017-11-21T02:51:39.588Z,19.70
2017-11-21T02:52:44.147Z,19.70
2017-11-21T02:53:48.718Z,19.70
2017-11-21T02:54:53.240Z,19.70
2017-11-21T02:55:57.787Z,19.70
2017-11-21T02:57:02.342Z,19.70
2017-11-21T02:58:06.858Z,19.70
2017-11-21T02:59:11.382Z,19.70
2017-11-21T03:00:16.087Z,19.70
2017-11-21T03:01:20.782Z,19.70
2017-11-21T03:02:25.449Z,19.70
2017-11-21T03:03:30.245Z,19.70
2017-11-21T03:04:34.887Z,19.70
2017-11-21T03:05:39.464Z,19.70
2017-11-21T03:06:44.358Z,19.70
2017-11-21T03:07:49.206Z,19.70
2017-11-21T03:08:53.843Z,19.70
2017-11-21T03:09:58.725Z,19.70
2017-11-21T03:11:03.360Z,19.60
2017-11-21T03:12:08.109Z,19.70
2017-11-21T03:13:12.754Z,19.70
2017-11-21T03:14:17.506Z,19.70
2017-11-21T03:15:22.244Z,19.70
2017-11-21T03:16:27.035Z,19.70
2017-11-21T03:17:31.869Z,19.70
2017-11-21T03:18:36.473Z,19.70
2017-11-21T03:19:41.071Z,19.70
2017-11-21T03:20:45.804Z,19.70
2017-11-21T03:21:50.600Z,19.70
2017-11-21T03:22:55.155Z,19.70
2017-11-21T03:23:59.756Z,19.70
2017-11-21T03:25:04.640Z,19.60
2017-11-21T03:26:09.563Z,19.70
2017-11-21T03:27:14.656Z,19.70
2017-11-21T03:28:19.335Z,19.70
2017-11-21T03:29:23.897Z,19.60
2017-11-21T03:30:28.661Z,19.70
2017-11-21T03:31:33.504Z,19.70
2017-11-21T03:32:38.395Z,19.70
2017-11-21T03:33:43.347Z,19.70
2017-11-21T03:34:48.213Z,19.70
2017-11-21T03:35:52.803Z,19.70
2017-11-21T03:36:57.388Z,19.70
2017-11-21T03:38:02.167Z,19.70
2017-11-21T03:39:07.024Z,19.70
2017-11-21T03:40:11.739Z,19.70
2017-11-21T03:41:16.317Z,19.70
2017-11-21T03:42:21.126Z,19.60
2017-11-21T03:43:26.028Z,19.70
2017-11-21T03:44:31.185Z,19.70
2017-11-21T03:45:35.853Z,19.70
2017-11-21T03:46:41.429Z,19.60
2017-11-21T03:47:46.229Z,19.70
2017-11-21T03:48:50.877Z,19.70
2017-11-21T03:49:55.525Z,19.60
2017-11-21T03:51:00.438Z,19.70
2017-11-21T03:52:05.287Z,19.70
2017-11-21T03:53:10.075Z,19.70
2017-11-21T03:54:14.628Z,19.60
2017-11-21T03:55:19.334Z,19.60
2017-11-21T03:56:23.933Z,19.60
2017-11-21T03:57:28.804Z,19.70
2017-11-21T03:58:33.672Z,19.60
2017-11-21T03:59:38.349Z,19.70
2017-11-21T04:00:43.120Z,19.70
2017-11-21T04:01:47.870Z,19.60
2017-11-21T04:02:52.587Z,19.60
2017-11-21T04:03:57.215Z,19.70
2017-11-21T04:05:02.064Z,19.60
2017-11-21T04:06:06.752Z,19.60
2017-11-21T04:07:11.632Z,19.60
2017-11-21T04:08:16.831Z,19.70
2017-11-21T04:09:21.411Z,19.70
2017-11-21T04:10:26.025Z,19.70
2017-11-21T04:11:30.702Z,19.70
2017-11-21T04:12:35.366Z,19.60
2017-11-21T04:13:40.586Z,19.70
2017-11-21T04:14:45.404Z,19.70
2017-11-21T04:15:50.160Z,19.60
2017-11-21T04:16:55.045Z,19.70
2017-11-21T04:17:59.666Z,19.70
2017-11-21T04:19:04.372Z,19.60
2017-11-21T04:20:09.105Z,19.70
2017-11-21T04:21:13.938Z,19.70
2017-11-21T04:22:18.876Z,19.70
2017-11-21T04:23:23.563Z,19.60
2017-11-21T04:24:28.337Z,19.70
2017-11-21T04:25:32.876Z,19.70
2017-11-21T04:26:37.673Z,19.60
2017-11-21T04:27:42.395Z,19.60
2017-11-21T04:28:47.515Z,19.70
2017-11-21T04:29:52.635Z,19.70
2017-11-21T04:30:57.808Z,19.60
2017-11-21T04:32:03.110Z,19.60
2017-11-21T04:33:08.360Z,19.70
2017-11-21T04:34:13.652Z,19.70
2017-11-21T04:35:18.642Z,19.70
2017-11-21T04:36:23.665Z,19.70
2017-11-21T04:37:28.657Z,19.70
2017-11-21T04:38:33.664Z,19.70
2017-11-21T04:39:38.717Z,19.70
2017-11-21T04:40:44.109Z,19.70
2017-11-21T04:41:48.884Z,19.70
2017-11-21T04:42:53.715Z,19.70
2017-11-21T04:43:59.015Z,19.70
2017-11-21T04:45:04.273Z,19.70
2017-11-21T04:46:10.502Z,19.70
2017-11-21T04:47:15.730Z,19.70
2017-11-21T04:48:21.536Z,19.70
2017-11-21T04:49:26.976Z,19.70
2017-11-21T04:50:31.966Z,19.70
2017-11-21T04:51:37.132Z,19.70
2017-11-21T04:52:42.203Z,19.70
2017-11-21T04:53:47.171Z,19.70
2017-11-21T04:54:52.341Z,19.70
2017-11-21T04:55:57.133Z,19.70
2017-11-21T04:57:02.563Z,19.70
2017-11-21T04:58:07.697Z,19.70
2017-11-21T04:59:12.934Z,19.70
2017-11-21T05:00:45.127Z,19.70
2017-11-21T05:01:50.765Z,19.70
2017-11-21T05:02:55.924Z,19.70
2017-11-21T05:04:01.232Z,19.70
2017-11-21T05:05:06.437Z,19.70
2017-11-21T05:06:11.353Z,19.70
2017-11-21T05:07:16.173Z,19.70
2017-11-21T05:08:21.458Z,19.70
2017-11-21T05:09:26.657Z,19.70
2017-11-21T05:10:31.687Z,19.70
2017-11-21T05:11:36.544Z,19.70
2017-11-21T05:12:41.595Z,19.70
2017-11-21T05:13:46.606Z,19.70
2017-11-21T05:14:51.568Z,19.70
2017-11-21T05:15:56.691Z,19.70
2017-11-21T05:17:01.733Z,19.70
2017-11-21T05:18:06.827Z,19.70
2017-11-21T05:19:11.956Z,19.70
2017-11-21T05:20:17.308Z,19.70
2017-11-21T05:21:22.564Z,19.70
2017-11-21T05:22:27.832Z,19.60
2017-11-21T05:23:34.310Z,19.60
2017-11-21T05:24:40.740Z,19.60
2017-11-21T05:25:47.601Z,19.60
2017-11-21T05:26:53.682Z,19.60
2017-11-21T05:27:59.817Z,19.60
2017-11-21T05:29:06.379Z,19.50
2017-11-21T05:30:12.505Z,19.60
2017-11-21T05:31:17.758Z,19.60
2017-11-21T05:32:22.734Z,19.60
2017-11-21T05:33:27.865Z,19.70
2017-11-21T05:34:32.757Z,19.60
2017-11-21T05:35:37.874Z,19.70
2017-11-21T05:36:42.967Z,19.70
2017-11-21T05:37:48.177Z,19.70
2017-11-21T05:38:53.370Z,19.70
2017-11-21T05:39:58.817Z,19.70
2017-11-21T05:41:04.929Z,19.70
2017-11-21T05:42:10.188Z,19.70
2017-11-21T05:43:16.698Z,19.70
2017-11-21T05:44:21.762Z,19.70
2017-11-21T05:45:28.786Z,19.80
2017-11-21T05:46:34.132Z,19.80
2017-11-21T05:47:39.049Z,19.80
2017-11-21T05:48:44.331Z,19.80
2017-11-21T05:49:49.719Z,19.70
2017-11-21T05:50:55.190Z,19.80
2017-11-21T05:52:00.498Z,19.80
2017-11-21T05:53:05.697Z,19.80
2017-11-21T05:54:10.848Z,19.80
2017-11-21T05:55:16.299Z,19.80
2017-11-21T05:56:21.442Z,19.80
2017-11-21T05:57:26.725Z,19.80
2017-11-21T05:58:32.185Z,19.80
2017-11-21T05:59:37.909Z,19.80
2017-11-21T06:00:43.779Z,19.90
2017-11-21T06:01:49.526Z,19.90
2017-11-21T06:02:54.936Z,19.90
2017-11-21T06:04:00.095Z,19.80
2017-11-21T06:05:05.606Z,19.80
2017-11-21T06:06:10.992Z,19.90
2017-11-21T06:07:16.283Z,19.90
2017-11-21T06:08:21.513Z,19.90
2017-11-21T06:09:28.042Z,19.80
2017-11-21T06:10:33.440Z,19.80
2017-11-21T06:11:38.642Z,19.90
2017-11-21T06:12:44.054Z,19.90
2017-11-21T06:13:49.204Z,19.90
2017-11-21T06:14:54.303Z,19.90
2017-11-21T06:15:59.556Z,19.90
2017-11-21T06:17:04.674Z,19.90
2017-11-21T06:18:09.924Z,19.90
2017-11-21T06:19:15.439Z,19.90
2017-11-21T06:20:20.615Z,19.90
2017-11-21T06:21:26.281Z,19.90
2017-11-21T06:22:31.391Z,19.90
2017-11-21T06:23:36.672Z,19.90
2017-11-21T06:24:41.971Z,19.90
2017-11-21T06:25:47.490Z,19.80
2017-11-21T06:26:52.615Z,19.80
2017-11-21T06:27:57.847Z,19.80
2017-11-21T06:29:04.038Z,19.90
2017-11-21T06:30:09.447Z,19.90
2017-11-21T06:31:14.869Z,19.80
2017-11-21T06:32:20.383Z,19.90
2017-11-21T06:33:25.680Z,19.90
2017-11-21T06:34:32.316Z,19.90
2017-11-21T06:35:38.060Z,19.90
2017-11-21T06:36:43.409Z,19.90
2017-11-21T06:37:49.765Z,19.80
2017-11-21T06:38:56.520Z,19.80
2017-11-21T06:40:01.826Z,19.80
2017-11-21T06:41:07.151Z,19.80
2017-11-21T06:42:12.847Z,19.80
2017-11-21T06:43:18.966Z,19.80
2017-11-21T06:44:24.560Z,19.80
2017-11-21T06:45:29.856Z,19.80
2017-11-21T06:46:35.234Z,19.80
2017-11-21T06:47:40.670Z,19.80
2017-11-21T06:48:46.056Z,19.80
2017-11-21T06:49:53.005Z,19.70
2017-11-21T06:50:58.436Z,19.50
2017-11-21T06:52:03.835Z,19.40
2017-11-21T06:53:09.194Z,19.20
2017-11-21T06:54:14.547Z,19.10
2017-11-21T06:55:20.039Z,19.00
2017-11-21T06:56:25.276Z,18.90
2017-11-21T06:57:30.636Z,18.90
2017-11-21T06:58:35.839Z,18.90
2017-11-21T06:59:41.319Z,19.00
2017-11-21T07:00:46.536Z,19.00
2017-11-21T07:01:51.786Z,19.10
2017-11-21T07:02:57.282Z,19.20
2017-11-21T07:04:02.830Z,19.20
2017-11-21T07:05:08.729Z,19.30
2017-11-21T07:06:14.239Z,19.30
2017-11-21T07:07:19.631Z,19.40
2017-11-21T07:08:25.219Z,19.40
2017-11-21T07:09:30.768Z,19.40
2017-11-21T07:10:36.040Z,19.40
2017-11-21T07:11:41.544Z,19.40
2017-11-21T07:12:47.029Z,19.50
2017-11-21T07:13:52.419Z,19.50
2017-11-21T07:14:57.824Z,19.50
2017-11-21T07:16:03.433Z,19.60
2017-11-21T07:17:08.754Z,19.60
2017-11-21T07:18:14.097Z,19.60
2017-11-21T07:19:19.819Z,19.60
2017-11-21T07:20:25.253Z,19.70
2017-11-21T07:21:31.102Z,19.70
2017-11-21T07:22:36.334Z,19.70
2017-11-21T07:23:41.922Z,19.70
2017-11-21T07:24:47.078Z,19.70
2017-11-21T07:25:52.854Z,19.70
2017-11-21T07:26:58.092Z,19.70
2017-11-21T07:28:03.609Z,19.80
2017-11-21T07:29:08.956Z,19.80
2017-11-21T07:30:14.600Z,19.80
2017-11-21T07:31:20.141Z,19.80
2017-11-21T07:32:26.675Z,19.80
2017-11-21T07:33:32.155Z,19.80
2017-11-21T07:34:37.564Z,19.80
2017-11-21T07:35:43.365Z,19.80
2017-11-21T07:36:48.539Z,19.80
2017-11-21T07:37:53.847Z,19.80
2017-11-21T07:38:59.951Z,19.80
2017-11-21T07:40:05.354Z,19.80
2017-11-21T07:41:10.711Z,19.80
2017-11-21T07:42:16.346Z,19.90
2017-11-21T07:43:21.933Z,19.80
2017-11-21T07:44:27.477Z,19.90
2017-11-21T07:45:32.896Z,19.90
2017-11-21T07:46:38.142Z,19.90
2017-11-21T07:47:44.283Z,19.90
2017-11-21T07:48:49.651Z,19.90
2017-11-21T07:49:55.150Z,19.90
2017-11-21T07:51:00.685Z,19.90
2017-11-21T07:52:06.268Z,19.90
2017-11-21T07:53:11.471Z,19.90
2017-11-21T07:54:17.693Z,19.90
2017-11-21T07:55:23.431Z,19.90
2017-11-21T07:56:28.708Z,19.90
2017-11-21T07:57:34.331Z,19.90
2017-11-21T07:58:39.714Z,19.90
2017-11-21T07:59:45.312Z,19.90
2017-11-21T08:00:51.622Z,19.90
2017-11-21T08:01:56.769Z,19.90
2017-11-21T08:03:02.716Z,19.90
2017-11-21T08:04:08.230Z,19.90
2017-11-21T08:05:14.192Z,19.90
2017-11-21T08:06:19.634Z,19.90
2017-11-21T08:07:24.916Z,19.90
2017-11-21T08:08:30.391Z,19.90
2017-11-21T08:09:38.982Z,19.90
2017-11-21T08:10:44.561Z,19.90
2017-11-21T08:11:49.958Z,19.90
2017-11-21T08:12:55.441Z,19.80
2017-11-21T08:14:00.887Z,19.80
2017-11-21T08:15:06.951Z,19.90
2017-11-21T08:16:12.492Z,19.80
2017-11-21T08:17:17.851Z,19.90
2017-11-21T08:18:23.808Z,19.90
2017-11-21T08:19:29.711Z,19.90
2017-11-21T08:20:35.151Z,19.90
2017-11-21T08:21:40.523Z,19.90
2017-11-21T08:22:45.530Z,19.90
2017-11-21T08:23:50.420Z,19.90
2017-11-21T08:24:57.137Z,19.90
2017-11-21T08:26:02.169Z,19.90
2017-11-21T08:27:07.341Z,20.00
2017-11-21T08:28:12.484Z,19.90
2017-11-21T08:29:17.868Z,19.90
2017-11-21T08:30:23.023Z,19.90
2017-11-21T08:31:28.459Z,19.90
2017-11-21T08:32:33.535Z,19.90
2017-11-21T08:33:38.853Z,19.90
2017-11-21T08:34:44.187Z,19.90
2017-11-21T08:35:49.676Z,19.90
2017-11-21T08:36:54.881Z,19.90
2017-11-21T08:38:00.486Z,19.90
2017-11-21T08:39:06.013Z,19.90
2017-11-21T08:40:12.071Z,19.90
2017-11-21T08:41:17.214Z,19.90
2017-11-21T08:42:22.530Z,19.90
2017-11-21T08:43:28.323Z,19.90
2017-11-21T08:44:33.507Z,19.90
2017-11-21T08:45:38.762Z,19.90
2017-11-21T08:46:44.162Z,19.90
2017-11-21T08:47:49.718Z,19.90
2017-11-21T08:48:54.926Z,19.90
2017-11-21T08:50:00.221Z,19.90
2017-11-21T08:51:05.628Z,19.80
2017-11-21T08:52:11.366Z,19.80
2017-11-21T08:53:16.967Z,19.80
2017-11-21T08:54:21.979Z,19.80
2017-11-21T08:55:27.336Z,19.80
2017-11-21T08:56:32.814Z,19.80
2017-11-21T08:57:38.196Z,19.80
2017-11-21T08:58:45.806Z,19.80
2017-11-21T08:59:51.076Z,19.80
2017-11-21T09:00:56.519Z,19.80
2017-11-21T09:02:02.449Z,19.80
2017-11-21T09:03:08.121Z,19.80
2017-11-21T09:04:13.296Z,19.80
2017-11-21T09:05:18.803Z,19.80
2017-11-21T09:06:24.742Z,19.80
2017-11-21T09:07:31.014Z,19.80
2017-11-21T09:08:36.588Z,19.80
2017-11-21T09:09:41.934Z,19.80
2017-11-21T09:10:47.463Z,19.80
2017-11-21T09:11:52.805Z,19.80
2017-11-21T09:12:58.071Z,19.80
2017-11-21T09:14:04.949Z,19.80
2017-11-21T09:15:10.037Z,19.80
2017-11-21T09:16:15.428Z,19.80
2017-11-21T09:17:21.111Z,19.80
2017-11-21T09:18:26.664Z,19.80
2017-11-21T09:19:32.272Z,19.80
2017-11-21T09:20:37.811Z,19.80
2017-11-21T09:21:43.260Z,19.70
2017-11-21T09:22:50.778Z,19.80
2017-11-21T09:23:56.265Z,19.70
2017-11-21T09:25:01.739Z,19.80
2017-11-21T09:26:07.132Z,19.70
2017-11-21T09:27:12.553Z,19.80
2017-11-21T09:28:17.803Z,19.80
2017-11-21T09:29:24.255Z,19.70
2017-11-21T09:30:29.894Z,19.70
2017-11-21T09:31:35.414Z,19.70
2017-11-21T09:32:40.734Z,19.80
2017-11-21T09:33:46.020Z,19.80
2017-11-21T09:34:51.524Z,19.70
2017-11-21T09:35:56.672Z,19.80
2017-11-21T09:37:02.141Z,19.70
2017-11-21T09:38:09.543Z,19.70
2017-11-21T09:39:15.099Z,19.80
2017-11-21T09:40:20.656Z,19.80
2017-11-21T09:41:25.864Z,19.80
2017-11-21T09:42:31.183Z,19.80
2017-11-21T09:43:36.736Z,19.80
2017-11-21T09:44:43.047Z,19.80
2017-11-21T09:45:48.637Z,19.80
2017-11-21T09:46:54.122Z,19.70
2017-11-21T09:47:59.400Z,19.80
2017-11-21T09:49:04.968Z,19.80
2017-11-21T09:50:10.284Z,19.80
2017-11-21T09:51:16.764Z,19.70
2017-11-21T09:52:22.181Z,19.80
2017-11-21T09:53:29.747Z,19.80
2017-11-21T09:54:35.196Z,19.80
2017-11-21T09:55:40.616Z,19.80
2017-11-21T09:56:45.925Z,19.80
2017-11-21T09:57:51.707Z,19.80
2017-11-21T09:58:57.273Z,19.80
2017-11-21T10:00:02.853Z,19.80
2017-11-21T10:01:08.902Z,19.80
2017-11-21T10:02:14.282Z,19.80
2017-11-21T10:03:19.653Z,19.80
2017-11-21T10:04:25.345Z,19.80
2017-11-21T10:05:30.667Z,19.80
2017-11-21T10:06:36.145Z,19.80
2017-11-21T10:07:41.307Z,19.80
2017-11-21T10:08:47.673Z,19.80
2017-11-21T10:09:53.393Z,19.80
2017-11-21T10:10:58.601Z,19.80
2017-11-21T10:12:04.155Z,19.80
2017-11-21T10:13:09.650Z,19.80
2017-11-21T10:14:15.023Z,19.80
2017-11-21T10:15:20.170Z,19.80
2017-11-21T10:16:25.680Z,19.80
2017-11-21T10:17:31.169Z,19.70
2017-11-21T10:18:36.692Z,19.80
2017-11-21T10:19:41.980Z,19.80
2017-11-21T10:20:47.541Z,19.80
2017-11-21T10:21:53.076Z,19.80
2017-11-21T10:22:58.218Z,19.70
2017-11-21T10:24:03.482Z,19.80
2017-11-21T10:25:08.965Z,19.70
2017-11-21T10:26:14.144Z,19.70
2017-11-21T10:27:19.657Z,19.70
2017-11-21T10:28:25.136Z,19.70
2017-11-21T10:29:30.373Z,19.70
2017-11-21T10:30:35.450Z,19.70
2017-11-21T10:31:40.803Z,19.70
2017-11-21T10:32:46.108Z,19.70
2017-11-21T10:33:52.181Z,19.70
2017-11-21T10:34:57.303Z,19.70
2017-11-21T10:36:02.463Z,19.70
2017-11-21T10:37:07.627Z,19.70
2017-11-21T10:38:12.740Z,19.70
2017-11-21T10:39:17.919Z,19.70
2017-11-21T10:40:23.285Z,19.70
2017-11-21T10:41:28.681Z,19.70
2017-11-21T10:42:35.439Z,19.70
2017-11-21T10:43:40.752Z,19.70
2017-11-21T10:44:46.219Z,19.70
2017-11-21T10:45:51.550Z,19.70
2017-11-21T10:46:57.040Z,19.70
2017-11-21T10:48:02.697Z,19.70
2017-11-21T10:49:08.417Z,19.70
2017-11-21T10:50:14.198Z,19.70
2017-11-21T10:51:19.671Z,19.70
2017-11-21T10:52:25.189Z,19.70
2017-11-21T10:53:30.693Z,19.70
2017-11-21T10:54:36.356Z,19.80
2017-11-21T10:55:42.237Z,19.80
2017-11-21T10:56:47.758Z,19.80
2017-11-21T10:57:54.879Z,19.80
2017-11-21T10:59:00.153Z,19.80
2017-11-21T11:00:07.003Z,19.80
2017-11-21T11:01:12.325Z,19.80
2017-11-21T11:02:17.704Z,19.80
2017-11-21T11:03:23.964Z,19.80
2017-11-21T11:04:30.136Z,19.80
2017-11-21T11:05:35.554Z,19.70
2017-11-21T11:06:41.212Z,19.80
2017-11-21T11:07:46.701Z,19.70
2017-11-21T11:08:52.141Z,19.70
2017-11-21T11:09:57.724Z,19.70
2017-11-21T11:11:03.134Z,19.70
2017-11-21T11:12:08.758Z,19.70
2017-11-21T11:13:15.470Z,19.70
2017-11-21T11:14:21.063Z,19.70
2017-11-21T11:15:26.511Z,19.70
2017-11-21T11:16:31.809Z,19.70
2017-11-21T11:17:37.654Z,19.70
2017-11-21T11:18:43.172Z,19.70
2017-11-21T11:19:50.052Z,19.70
2017-11-21T11:20:56.594Z,19.70
2017-11-21T11:22:02.272Z,19.70
2017-11-21T11:23:07.510Z,19.70
2017-11-21T11:24:12.852Z,19.70
2017-11-21T11:25:18.077Z,19.70
2017-11-21T11:26:24.062Z,19.70
2017-11-21T11:27:29.882Z,19.70
2017-11-21T11:28:35.889Z,19.70
2017-11-21T11:29:41.127Z,19.70
2017-11-21T11:30:46.477Z,19.70
2017-11-21T11:31:51.721Z,19.70
2017-11-21T11:32:56.985Z,19.70
2017-11-21T11:34:02.720Z,19.70
2017-11-21T11:35:09.265Z,19.70
2017-11-21T11:36:15.017Z,19.70
2017-11-21T11:37:20.234Z,19.70
2017-11-21T11:38:26.783Z,19.70
2017-11-21T11:39:32.334Z,19.70
2017-11-21T11:40:37.837Z,19.70
2017-11-21T11:41:43.596Z,19.70
2017-11-21T11:42:48.916Z,19.70
2017-11-21T11:43:55.657Z,19.70
2017-11-21T11:45:01.006Z,19.60
2017-11-21T11:46:06.574Z,19.60
2017-11-21T11:47:11.895Z,19.70
2017-11-21T11:48:17.592Z,19.60
2017-11-21T11:49:22.881Z,19.70
2017-11-21T11:50:28.491Z,19.60
2017-11-21T11:51:33.737Z,19.70
2017-11-21T11:52:39.685Z,19.70
2017-11-21T11:53:45.235Z,19.70
2017-11-21T11:54:51.182Z,19.70
2017-11-21T11:55:57.295Z,19.60
2017-11-21T11:57:03.258Z,19.70
2017-11-21T11:58:08.781Z,19.70
2017-11-21T11:59:15.551Z,19.60
2017-11-21T12:00:21.123Z,19.70
2017-11-21T12:01:26.753Z,19.70
2017-11-21T12:02:32.125Z,19.70
2017-11-21T12:03:37.673Z,19.70
2017-11-21T12:04:43.097Z,19.70
2017-11-21T12:05:48.534Z,19.70
2017-11-21T12:06:54.174Z,19.80
2017-11-21T12:07:59.516Z,19.70
2017-11-21T12:09:05.568Z,19.70
2017-11-21T12:10:11.641Z,19.70
2017-11-21T12:11:17.124Z,19.70
2017-11-21T12:12:22.548Z,19.70
2017-11-21T12:13:28.276Z,19.70
2017-11-21T12:14:35.476Z,19.70
2017-11-21T12:15:40.704Z,19.70
2017-11-21T12:16:46.449Z,19.70
2017-11-21T12:17:51.816Z,19.70
2017-11-21T12:18:57.227Z,19.70
2017-11-21T12:20:02.573Z,19.70
2017-11-21T12:21:08.008Z,19.70
2017-11-21T12:22:13.442Z,19.70
2017-11-21T12:23:18.643Z,19.70
2017-11-21T12:24:24.616Z,19.70
2017-11-21T12:25:29.917Z,19.70
2017-11-21T12:26:35.314Z,19.70
2017-11-21T12:27:40.778Z,19.70
2017-11-21T12:28:46.028Z,19.70
2017-11-21T12:29:53.612Z,19.70
2017-11-21T12:30:58.883Z,19.70
2017-11-21T12:32:04.284Z,19.60
2017-11-21T12:33:09.748Z,19.70
2017-11-21T12:34:15.243Z,19.60
2017-11-21T12:35:20.522Z,19.70
2017-11-21T12:36:25.825Z,19.70
2017-11-21T12:37:31.051Z,19.70
2017-11-21T12:38:36.494Z,19.70
2017-11-21T12:39:42.624Z,19.60
2017-11-21T12:40:48.453Z,19.70
2017-11-21T12:41:54.173Z,19.60
2017-11-21T12:42:59.895Z,19.60
2017-11-21T12:44:05.409Z,19.70
2017-11-21T12:45:13.423Z,19.70
2017-11-21T12:46:18.768Z,19.70
2017-11-21T12:47:24.353Z,19.60
2017-11-21T12:48:29.715Z,19.60
2017-11-21T12:49:35.039Z,19.60
2017-11-21T12:50:40.575Z,19.60
2017-11-21T12:51:45.992Z,19.60
2017-11-21T12:52:51.633Z,19.60
2017-11-21T12:53:57.176Z,19.60
2017-11-21T12:55:03.240Z,19.60
2017-11-21T12:56:08.901Z,19.60
2017-11-21T12:57:14.369Z,19.60
2017-11-21T12:58:19.863Z,19.60
2017-11-21T12:59:25.372Z,19.70
2017-11-21T13:00:33.162Z,19.70
2017-11-21T13:01:38.683Z,19.70
2017-11-21T13:02:44.731Z,19.70
2017-11-21T13:03:50.724Z,19.70
2017-11-21T13:04:56.463Z,19.70
2017-11-21T13:06:02.369Z,19.70
2017-11-21T13:07:07.843Z,19.70
2017-11-21T13:08:13.540Z,19.70
2017-11-21T13:09:19.092Z,19.70
2017-11-21T13:10:25.072Z,19.70
2017-11-21T13:11:30.977Z,19.70
2017-11-21T13:12:36.512Z,19.70
2017-11-21T13:13:42.066Z,19.60
2017-11-21T13:14:47.346Z,19.60
2017-11-21T13:15:52.695Z,19.60
2017-11-21T13:16:58.504Z,19.70
2017-11-21T13:18:04.319Z,19.70
2017-11-21T13:19:09.745Z,19.70
2017-11-21T13:20:15.100Z,19.60
2017-11-21T13:21:20.635Z,19.60
2017-11-21T13:22:26.066Z,19.60
2017-11-21T13:23:31.698Z,19.60
2017-11-21T13:24:37.221Z,19.60
2017-11-21T13:25:43.756Z,19.60
2017-11-21T13:26:49.326Z,19.70
2017-11-21T13:27:54.916Z,19.60
2017-11-21T13:29:00.556Z,19.60
2017-11-21T13:30:06.187Z,19.60
2017-11-21T13:31:13.519Z,19.60
2017-11-21T13:32:19.314Z,19.60
2017-11-21T13:33:24.700Z,19.60
2017-11-21T13:34:30.027Z,19.60
2017-11-21T13:35:35.723Z,19.60
2017-11-21T13:36:41.277Z,19.60
2017-11-21T13:37:46.925Z,19.60
2017-11-21T13:38:52.283Z,19.60
2017-11-21T13:39:57.678Z,19.60
2017-11-21T13:41:04.055Z,19.60
2017-11-21T13:42:09.469Z,19.60
2017-11-21T13:43:14.704Z,19.60
2017-11-21T13:44:20.179Z,19.60
2017-11-21T13:45:25.663Z,19.60
2017-11-21T13:46:32.478Z,19.60
2017-11-21T13:47:38.120Z,19.60
2017-11-21T13:48:43.601Z,19.60
2017-11-21T13:49:49.422Z,19.60
2017-11-21T13:50:54.777Z,19.60
2017-11-21T13:52:00.745Z,19.60
2017-11-21T13:53:06.192Z,19.60
2017-11-21T13:54:11.625Z,19.60
2017-11-21T13:55:17.558Z,19.60
2017-11-21T13:56:23.781Z,19.50
2017-11-21T13:57:29.282Z,19.60
2017-11-21T13:58:34.969Z,19.60
2017-11-21T13:59:40.384Z,19.50
2017-11-21T14:00:45.958Z,19.60
2017-11-21T14:01:54.174Z,19.50